Commodore Clipper — C6QQ3 — position and weather

sailwx.info

Track history (hours):
 
Tides and Currents Weather Stations Pressure Air Temp Water Temp Dewpoint Dewpoint Depression Visibility Wind Speed Wind Dir Waves Ship Positions

Commodore Clipper

Operator: Condor Marine Services

Last reported at 2017-May-28 06:31 UTC. Time now 2017-May-28 06:45 UTC.
Position N 50°49' W 001°06'.

Length 130 m; draft 5.2 m.

Type: Ship. MMSI: 308094000.

Date/timePositionNaut miles runAvg speedWind from/ knotsBaromVisibWave heightAir tempDewpointWater temp
2017-May-28 06:31N 50°49' W 001°06'0 0.0
2017-May-28 06:01N 50°49' W 001°06'0 0.0
2017-May-28 05:30N 50°49' W 001°06'2 3.6
2017-May-28 05:00N 50°47' W 001°06'713.4
2017-May-28 04:31N 50°41' W 001°01'714.2
2017-May-28 04:01N 50°36' W 001°07'714.2
2017-May-28 03:30N 50°29' W 001°13'714.5
2017-May-28 03:00N 50°23' W 001°20'714.0
2017-May-28 02:30N 50°18' W 001°26'5 9.4
2017-May-28 02:00N 50°14' W 001°30'610.7
2017-May-28 01:28N 50°10' W 001°37'711.7
2017-May-28 00:51N 50°05' W 001°45'412.4
2017-May-28 00:30N 50°01' W 001°49'711.8
2017-May-27 23:56N 49°55' W 001°53'511.7
2017-May-27 23:28N 49°51' W 001°58'713.1
2017-May-27 22:56N 49°44' W 002°02'614.7
2017-May-27 22:29N 49°38' W 002°06'714.7
2017-May-27 22:00N 49°32' W 002°11'815.5
2017-May-27 21:31N 49°25' W 002°15'815.2
2017-May-27 21:00N 49°18' W 002°20'815.6
2017-May-27 20:30N 49°10' W 002°17'62 7.2
2017-May-27 11:53N 50°06' W 001°36'716.5
2017-May-27 11:28N 50°12' W 001°30'715.9
2017-May-27 11:00N 50°18' W 001°23'815.4
2017-May-27 10:30N 50°24' W 001°17'714.9
2017-May-27 10:00N 50°31' W 001°11'714.5
2017-May-27 09:30N 50°37' W 001°06'612.5
2017-May-27 09:00N 50°43' W 001°02'612.6
2017-May-27 08:31N 50°49' W 001°06'0 1.0
2017-May-27 08:01N 50°49' W 001°06'0 0.0
2017-May-27 07:31N 50°49' W 001°06'0 0.0
2017-May-27 07:00N 50°49' W 001°06'0 0.0
2017-May-27 06:31N 50°49' W 001°06'0 0.0
2017-May-27 06:01N 50°49' W 001°06'0 0.3
2017-May-27 05:30N 50°49' W 001°06'3 5.0
2017-May-27 05:00N 50°46' W 001°06'713.2
2017-May-27 04:30N 50°41' W 000°58'714.9
2017-May-27 04:00N 50°35' W 001°03'612.1
2017-May-27 03:30N 50°31' W 001°10'5 9.3
2017-May-27 03:00N 50°28' W 001°16'5 9.8
2017-May-27 02:30N 50°24' W 001°21'713.8
2017-May-27 02:00N 50°18' W 001°26'66 7.1
2017-May-26 16:44N 49°27' W 002°31'51 9.7
2017-May-26 11:32N 50°05' W 001°39'218.3
2017-May-26 11:25N 50°07' W 001°37'717.7
2017-May-26 11:00N 50°13' W 001°31'817.2
2017-May-26 10:30N 50°21' W 001°24'816.7
2017-May-26 10:00N 50°27' W 001°17'815.9
2017-May-26 09:31N 50°34' W 001°10'815.4
2017-May-26 09:01N 50°41' W 001°03'713.6
2017-May-26 08:30N 50°47' W 001°06'2 3.4
2017-May-26 08:00N 50°49' W 001°06'0 0.0
2017-May-26 07:30N 50°49' W 001°06'0 0.0
2017-May-26 07:00N 50°49' W 001°06'0 0.0
2017-May-26 06:30N 50°49' W 001°06'0 0.0
2017-May-26 06:00N 50°49' W 001°06'0 0.0
2017-May-26 05:30N 50°49' W 001°06'2 3.8
2017-May-26 05:01N 50°47' W 001°06'714.7
2017-May-26 04:31N 50°42' W 000°58'714.5
2017-May-26 04:00N 50°35' W 001°02'714.0
2017-May-26 03:30N 50°29' W 001°10'714.9
2017-May-26 03:00N 50°24' W 001°17'714.8
2017-May-26 02:30N 50°18' W 001°24'814.4
2017-May-26 01:59N 50°12' W 001°30'613.5
2017-May-26 01:30N 50°07' W 001°37'713.5
2017-May-26 01:00N 50°01' W 001°44'2013.4
2017-May-25 23:32N 49°45' W 002°00'611.9
2017-May-25 23:03N 49°40' W 002°04'114.2
2017-May-25 23:00N 49°39' W 002°05'915.7
2017-May-25 22:27N 49°31' W 002°11'1017.2
2017-May-25 21:52N 49°22' W 002°17'13 4.2
2017-May-25 18:43N 49°11' W 002°07'0 0.1
2017-May-25 18:10N 49°11' W 002°07'1 8.1
2017-May-25 18:01N 49°10' W 002°09'914.7
2017-May-25 17:23N 49°14' W 002°21'717.2
2017-May-25 16:58N 49°20' W 002°26'816.7
2017-May-25 16:31N 49°27' W 002°31'0 0.8
2017-May-25 15:52N 49°27' W 002°32'0 0.0
2017-May-25 15:30N 49°27' W 002°32'0 0.0
2017-May-25 15:00N 49°27' W 002°32'9 8.7
2017-May-25 14:00N 49°30' W 002°19'612.6
2017-May-25 13:30N 49°33' W 002°11'714.7
2017-May-25 13:01N 49°40' W 002°05'1516.4
2017-May-25 12:07N 49°54' W 001°58'219.6
2017-May-25 12:01N 49°56' W 001°56'1019.4
2017-May-25 11:31N 50°04' W 001°49'1019.2
2017-May-25 11:00N 50°11' W 001°39'918.2
2017-May-25 10:31N 50°18' W 001°29'917.8
2017-May-25 10:00N 50°25' W 001°20'817.2
2017-May-25 09:31N 50°32' W 001°13'816.5
2017-May-25 09:01N 50°39' W 001°06'713.4
2017-May-25 08:31N 50°45' W 001°05'3 7.0
2017-May-25 08:01N 50°49' W 001°06'0 0.0
2017-May-25 07:31N 50°49' W 001°06'0 0.0
2017-May-25 07:01N 50°49' W 001°06'0 0.0
2017-May-25 06:31N 50°49' W 001°06'0 0.0
2017-May-25 06:00N 50°49' W 001°06'0 0.0
2017-May-25 05:31N 50°49' W 001°06'1 2.9
2017-May-25 05:01N 50°47' W 001°07'713.8
2017-May-25 04:31N 50°42' W 001°00'815.6
2017-May-25 04:00N 50°35' W 001°07'712.1
2017-May-25 03:27N 50°32' W 001°16'714.6
2017-May-25 03:00N 50°25' W 001°15'2612.9
2017-May-25 01:01N 50°05' W 001°41'913.7
2017-May-25 00:20N 49°58' W 001°50'513.7
2017-May-24 23:59N 49°55' W 001°54'713.9
2017-May-24 23:31N 49°49' W 001°60'712.9
2017-May-24 23:00N 49°43' W 002°04'612.6
2017-May-24 22:31N 49°37' W 002°08'1015.9
2017-May-24 21:54N 49°28' W 002°13'616.6
2017-May-24 21:30N 49°22' W 002°17'816.9
2017-May-24 21:00N 49°14' W 002°21'816.9
2017-May-24 20:31N 49°10' W 002°10'2 0.9
2017-May-24 18:07N 49°11' W 002°07'0 1.8
2017-May-24 18:00N 49°10' W 002°07'714.2
2017-May-24 17:30N 49°10' W 002°18'815.8
2017-May-24 16:59N 49°18' W 002°24'1016.5
2017-May-24 16:22N 49°27' W 002°30'1 0.4
2017-May-24 14:39N 49°26' W 002°30'312.1
2017-May-24 14:23N 49°27' W 002°25'1213.4
2017-May-24 13:30N 49°34' W 002°10'914.6
2017-May-24 12:54N 49°41' W 002°04'719.0
2017-May-24 12:31N 49°48' W 001°59'1019.9
2017-May-24 12:01N 49°57' W 001°52'1019.7
2017-May-24 11:30N 50°05' W 001°44'2918.8
2017-May-24 09:57N 50°29' W 001°16'818.1
2017-May-24 09:30N 50°35' W 001°09'816.6
2017-May-24 09:00N 50°43' W 001°03'612.6
2017-May-24 08:31N 50°48' W 001°07'1 1.6
2017-May-24 08:00N 50°49' W 001°06'0 0.0
2017-May-24 07:31N 50°49' W 001°06'0 0.0
2017-May-24 07:00N 50°49' W 001°06'0 0.0
2017-May-24 06:30N 50°49' W 001°06'0 0.0
2017-May-24 06:00N 50°49' W 001°06'1 2.8
2017-May-24 05:31N 50°47' W 001°07'611.8
2017-May-24 05:01N 50°43' W 001°01'815.6
2017-May-24 04:30N 50°36' W 001°07'4816.1
2017-May-24 01:31N 49°58' W 001°54'415.6
2017-May-24 01:14N 49°54' W 001°56'415.7
2017-May-24 00:58N 49°50' W 001°59'1213.7
2017-May-24 00:04N 49°38' W 002°05'1614.9
2017-May-23 22:58N 49°27' W 002°24'69 5.3
2017-May-23 10:03N 50°24' W 001°22'617.8
2017-May-23 09:43N 50°29' W 001°17'418.1
2017-May-23 09:30N 50°32' W 001°14'918.5
2017-May-23 09:00N 50°39' W 001°05'714.5
2017-May-23 08:31N 50°46' W 001°06'2 4.6
2017-May-23 08:01N 50°49' W 001°06'0 0.0
2017-May-23 07:30N 50°49' W 001°06'0 0.0
2017-May-23 07:00N 50°49' W 001°06'0 0.0
2017-May-23 06:31N 50°49' W 001°06'0 0.0
2017-May-23 06:00N 50°49' W 001°06'0 0.0
2017-May-23 05:30N 50°49' W 001°06'2 3.7
2017-May-23 05:01N 50°47' W 001°06'713.9
2017-May-23 04:31N 50°40' W 001°04'916.8
2017-May-23 04:00N 50°33' W 001°11'2415.9
2017-May-23 02:28N 50°12' W 001°32'815.2
2017-May-23 01:58N 50°07' W 001°40'715.1
2017-May-23 01:30N 50°01' W 001°45'915.9
2017-May-23 00:58N 49°54' W 001°52'715.5
2017-May-23 00:31N 49°48' W 001°59'714.0
2017-May-23 00:00N 49°41' W 002°04'714.3
2017-May-22 23:31N 49°35' W 002°08'1015.5
2017-May-22 22:50N 49°29' W 002°21'514.5
2017-May-22 22:29N 49°26' W 002°28'3 4.6
2017-May-22 21:47N 49°27' W 002°32'0 0.0
2017-May-22 20:18N 49°27' W 002°32'3 9.5
2017-May-22 20:00N 49°25' W 002°29'1317.1
2017-May-22 19:14N 49°13' W 002°20'9 3.1
2017-May-22 16:19N 49°11' W 002°07'0 0.0
2017-May-22 15:55N 49°11' W 002°07'410.6
2017-May-22 15:30N 49°10' W 002°14'714.6
2017-May-22 15:00N 49°16' W 002°20'4013.0
2017-May-22 11:56N 49°51' W 001°53'1419.1
2017-May-22 11:11N 50°03' W 001°39'918.6
2017-May-22 10:42N 50°11' W 001°33'618.2
2017-May-22 10:22N 50°16' W 001°29'718.8
2017-May-22 10:00N 50°22' W 001°23'918.7
2017-May-22 09:30N 50°30' W 001°15'1019.1
2017-May-22 09:00N 50°37' W 001°06'714.6
2017-May-22 08:31N 50°45' W 001°05'4 8.0
2017-May-22 08:00N 50°49' W 001°06'0 0.2
2017-May-22 07:30N 50°49' W 001°06'0 0.0
2017-May-22 07:00N 50°49' W 001°06'0 0.0
2017-May-22 06:30N 50°49' W 001°06'0 0.0
2017-May-22 06:00N 50°49' W 001°06'0 0.0
2017-May-22 05:31N 50°49' W 001°06'0 0.0
2017-May-22 05:00N 50°49' W 001°06'0 0.0
2017-May-22 04:31N 50°49' W 001°06'0 0.0
2017-May-22 04:00N 50°49' W 001°06'0 0.0
2017-May-22 03:31N 50°49' W 001°06'0 0.0
2017-May-22 03:00N 50°49' W 001°06'0 0.0
2017-May-22 02:30N 50°49' W 001°06'0 0.0
2017-May-22 02:00N 50°49' W 001°06'0 0.0
2017-May-22 01:30N 50°49' W 001°06'0 0.0
2017-May-22 01:00N 50°49' W 001°06'0 0.0
2017-May-22 00:30N 50°49' W 001°06'0 0.0
2017-May-22 00:00N 50°49' W 001°06'0 0.0
2017-May-21 23:30N 50°49' W 001°06'0 0.0
2017-May-21 23:01N 50°49' W 001°06'0 0.0
2017-May-21 22:30N 50°49' W 001°06'0 0.0
2017-May-21 22:00N 50°49' W 001°06'0 0.0
2017-May-21 21:30N 50°49' W 001°06'0 0.0
2017-May-21 21:00N 50°49' W 001°06'0 0.0
2017-May-21 20:30N 50°49' W 001°06'0 0.0
2017-May-21 20:00N 50°49' W 001°06'0 0.0
2017-May-21 19:30N 50°49' W 001°06'0 0.0
2017-May-21 19:00N 50°49' W 001°06'0 0.0
2017-May-21 18:30N 50°49' W 001°06'0 0.0
2017-May-21 18:00N 50°49' W 001°06'0 0.0
2017-May-21 17:30N 50°49' W 001°06'0 0.0
2017-May-21 17:00N 50°49' W 001°06'0 0.0
2017-May-21 16:30N 50°49' W 001°06'0 0.0
2017-May-21 16:00N 50°49' W 001°06'0 0.0
2017-May-21 15:30N 50°49' W 001°06'0 0.0
2017-May-21 15:00N 50°49' W 001°06'0 0.0
2017-May-21 14:30N 50°49' W 001°06'0 0.0
2017-May-21 13:30N 50°49' W 001°06'0 0.0
2017-May-21 13:00N 50°49' W 001°06'0 0.0
2017-May-21 12:31N 50°49' W 001°06'0 0.0
2017-May-21 12:01N 50°49' W 001°06'0 0.0
2017-May-21 11:31N 50°49' W 001°06'0 0.0
2017-May-21 11:00N 50°49' W 001°06'0 0.0
2017-May-21 10:30N 50°49' W 001°06'0 0.0
2017-May-21 10:00N 50°49' W 001°06'0 0.0
2017-May-21 09:30N 50°49' W 001°06'0 0.0
2017-May-21 09:00N 50°49' W 001°06'0 0.0
2017-May-21 08:30N 50°49' W 001°06'0 0.0
2017-May-21 08:00N 50°49' W 001°06'0 0.0
2017-May-21 07:31N 50°49' W 001°06'0 0.0
2017-May-21 07:00N 50°49' W 001°06'0 0.0
2017-May-21 06:30N 50°49' W 001°06'0 0.0
2017-May-21 06:00N 50°49' W 001°06'0 0.0
2017-May-21 05:31N 50°49' W 001°06'1 2.2
2017-May-21 05:00N 50°48' W 001°07'714.3
2017-May-21 04:31N 50°41' W 001°03'815.1
2017-May-21 04:00N 50°35' W 001°09'913.5
2017-May-21 03:19N 50°27' W 001°18'7 0.4
2017-May-20 10:02N 50°22' W 001°25'117.5
2017-May-20 10:00N 50°23' W 001°25'917.6
2017-May-20 09:30N 50°29' W 001°16'918.1
2017-May-20 09:01N 50°37' W 001°08'815.4
2017-May-20 08:31N 50°44' W 001°04'5 9.6
2017-May-20 08:01N 50°49' W 001°06'0 0.4
2017-May-20 07:30N 50°49' W 001°06'0 0.0
2017-May-20 07:00N 50°49' W 001°06'0 0.0
2017-May-20 06:30N 50°49' W 001°06'0 0.0
2017-May-20 06:00N 50°49' W 001°06'0 0.0
2017-May-20 05:30N 50°49' W 001°06'1 2.7
2017-May-20 05:00N 50°48' W 001°07'713.7
2017-May-20 04:31N 50°41' W 001°02'816.3
2017-May-20 04:01N 50°35' W 001°10'14 0.8
2017-May-19 10:57N 50°23' W 001°23'817.0
2017-May-19 10:30N 50°29' W 001°16'817.2
2017-May-19 10:00N 50°36' W 001°08'815.9
2017-May-19 09:31N 50°43' W 001°03'612.2
2017-May-19 09:00N 50°49' W 001°07'1 1.2
2017-May-19 08:30N 50°49' W 001°06'0 0.0
2017-May-19 08:00N 50°49' W 001°06'0 0.0
2017-May-19 07:30N 50°49' W 001°06'0 0.0
2017-May-19 07:00N 50°49' W 001°06'0 0.0
2017-May-19 06:30N 50°49' W 001°06'0 0.0
2017-May-19 06:00N 50°49' W 001°06'0 0.0
2017-May-19 05:30N 50°49' W 001°06'1 2.7
2017-May-19 05:00N 50°48' W 001°07'713.8
2017-May-19 04:31N 50°41' W 001°03'816.0
2017-May-19 04:00N 50°35' W 001°10'10 0.5
2017-May-18 09:51N 50°26' W 001°18'617.2
2017-May-18 09:30N 50°31' W 001°13'917.4
2017-May-18 09:00N 50°38' W 001°05'714.4
2017-May-18 08:30N 50°46' W 001°05'3 6.2
2017-May-18 08:01N 50°49' W 001°06'0 0.0
2017-May-18 07:30N 50°49' W 001°06'0 0.0
2017-May-18 07:00N 50°49' W 001°06'  
Track history (hours):
 
Tides and Currents Weather Stations Pressure Air Temp Water Temp Dewpoint Dewpoint Depression Visibility Wind Speed Wind Dir Waves Ship Positions

Commodore Clipper

Operator: Condor Marine Services

Last reported at 2017-May-28 06:31 UTC. Time now 2017-May-28 06:45 UTC.
Position N 50°49' W 001°06'.

Length 130 m; draft 5.2 m.

Type: Ship. MMSI: 308094000.

Date/timePositionNaut miles runAvg speedWind from/ knotsBaromVisibWave heightAir tempDewpointWater temp
2017-May-28 06:31N 50°49' W 001°06'0 0.0
2017-May-28 06:01N 50°49' W 001°06'0 0.0
2017-May-28 05:30N 50°49' W 001°06'2 3.6
2017-May-28 05:00N 50°47' W 001°06'713.4
2017-May-28 04:31N 50°41' W 001°01'714.2
2017-May-28 04:01N 50°36' W 001°07'714.2
2017-May-28 03:30N 50°29' W 001°13'714.5
2017-May-28 03:00N 50°23' W 001°20'714.0
2017-May-28 02:30N 50°18' W 001°26'5 9.4
2017-May-28 02:00N 50°14' W 001°30'610.7
2017-May-28 01:28N 50°10' W 001°37'711.7
2017-May-28 00:51N 50°05' W 001°45'412.4
2017-May-28 00:30N 50°01' W 001°49'711.8
2017-May-27 23:56N 49°55' W 001°53'511.7
2017-May-27 23:28N 49°51' W 001°58'713.1
2017-May-27 22:56N 49°44' W 002°02'614.7
2017-May-27 22:29N 49°38' W 002°06'714.7
2017-May-27 22:00N 49°32' W 002°11'815.5
2017-May-27 21:31N 49°25' W 002°15'815.2
2017-May-27 21:00N 49°18' W 002°20'815.6
2017-May-27 20:30N 49°10' W 002°17'62 7.2
2017-May-27 11:53N 50°06' W 001°36'716.5
2017-May-27 11:28N 50°12' W 001°30'715.9
2017-May-27 11:00N 50°18' W 001°23'815.4
2017-May-27 10:30N 50°24' W 001°17'714.9
2017-May-27 10:00N 50°31' W 001°11'714.5
2017-May-27 09:30N 50°37' W 001°06'612.5
2017-May-27 09:00N 50°43' W 001°02'612.6
2017-May-27 08:31N 50°49' W 001°06'0 1.0
2017-May-27 08:01N 50°49' W 001°06'0 0.0
2017-May-27 07:31N 50°49' W 001°06'0 0.0
2017-May-27 07:00N 50°49' W 001°06'0 0.0
2017-May-27 06:31N 50°49' W 001°06'0 0.0
2017-May-27 06:01N 50°49' W 001°06'0 0.3
2017-May-27 05:30N 50°49' W 001°06'3 5.0
2017-May-27 05:00N 50°46' W 001°06'713.2
2017-May-27 04:30N 50°41' W 000°58'714.9
2017-May-27 04:00N 50°35' W 001°03'612.1
2017-May-27 03:30N 50°31' W 001°10'5 9.3
2017-May-27 03:00N 50°28' W 001°16'5 9.8
2017-May-27 02:30N 50°24' W 001°21'713.8
2017-May-27 02:00N 50°18' W 001°26'66 7.1
2017-May-26 16:44N 49°27' W 002°31'51 9.7
2017-May-26 11:32N 50°05' W 001°39'218.3
2017-May-26 11:25N 50°07' W 001°37'717.7
2017-May-26 11:00N 50°13' W 001°31'817.2
2017-May-26 10:30N 50°21' W 001°24'816.7
2017-May-26 10:00N 50°27' W 001°17'815.9
2017-May-26 09:31N 50°34' W 001°10'815.4
2017-May-26 09:01N 50°41' W 001°03'713.6
2017-May-26 08:30N 50°47' W 001°06'2 3.4
2017-May-26 08:00N 50°49' W 001°06'0 0.0
2017-May-26 07:30N 50°49' W 001°06'0 0.0
2017-May-26 07:00N 50°49' W 001°06'0 0.0
2017-May-26 06:30N 50°49' W 001°06'0 0.0
2017-May-26 06:00N 50°49' W 001°06'0 0.0
2017-May-26 05:30N 50°49' W 001°06'2 3.8
2017-May-26 05:01N 50°47' W 001°06'714.7
2017-May-26 04:31N 50°42' W 000°58'714.5
2017-May-26 04:00N 50°35' W 001°02'714.0
2017-May-26 03:30N 50°29' W 001°10'714.9
2017-May-26 03:00N 50°24' W 001°17'714.8
2017-May-26 02:30N 50°18' W 001°24'814.4
2017-May-26 01:59N 50°12' W 001°30'613.5
2017-May-26 01:30N 50°07' W 001°37'713.5
2017-May-26 01:00N 50°01' W 001°44'2013.4
2017-May-25 23:32N 49°45' W 002°00'611.9
2017-May-25 23:03N 49°40' W 002°04'114.2
2017-May-25 23:00N 49°39' W 002°05'915.7
2017-May-25 22:27N 49°31' W 002°11'1017.2
2017-May-25 21:52N 49°22' W 002°17'13 4.2
2017-May-25 18:43N 49°11' W 002°07'0 0.1
2017-May-25 18:10N 49°11' W 002°07'1 8.1
2017-May-25 18:01N 49°10' W 002°09'914.7
2017-May-25 17:23N 49°14' W 002°21'717.2
2017-May-25 16:58N 49°20' W 002°26'816.7
2017-May-25 16:31N 49°27' W 002°31'0 0.8
2017-May-25 15:52N 49°27' W 002°32'0 0.0
2017-May-25 15:30N 49°27' W 002°32'0 0.0
2017-May-25 15:00N 49°27' W 002°32'9 8.7
2017-May-25 14:00N 49°30' W 002°19'612.6
2017-May-25 13:30N 49°33' W 002°11'714.7
2017-May-25 13:01N 49°40' W 002°05'1516.4
2017-May-25 12:07N 49°54' W 001°58'219.6
2017-May-25 12:01N 49°56' W 001°56'1019.4
2017-May-25 11:31N 50°04' W 001°49'1019.2
2017-May-25 11:00N 50°11' W 001°39'918.2
2017-May-25 10:31N 50°18' W 001°29'917.8
2017-May-25 10:00N 50°25' W 001°20'817.2
2017-May-25 09:31N 50°32' W 001°13'816.5
2017-May-25 09:01N 50°39' W 001°06'713.4
2017-May-25 08:31N 50°45' W 001°05'3 7.0
2017-May-25 08:01N 50°49' W 001°06'0 0.0
2017-May-25 07:31N 50°49' W 001°06'0 0.0
2017-May-25 07:01N 50°49' W 001°06'0 0.0
2017-May-25 06:31N 50°49' W 001°06'0 0.0
2017-May-25 06:00N 50°49' W 001°06'0 0.0
2017-May-25 05:31N 50°49' W 001°06'1 2.9
2017-May-25 05:01N 50°47' W 001°07'713.8
2017-May-25 04:31N 50°42' W 001°00'815.6
2017-May-25 04:00N 50°35' W 001°07'712.1
2017-May-25 03:27N 50°32' W 001°16'714.6
2017-May-25 03:00N 50°25' W 001°15'2612.9
2017-May-25 01:01N 50°05' W 001°41'913.7
2017-May-25 00:20N 49°58' W 001°50'513.7
2017-May-24 23:59N 49°55' W 001°54'713.9
2017-May-24 23:31N 49°49' W 001°60'712.9
2017-May-24 23:00N 49°43' W 002°04'612.6
2017-May-24 22:31N 49°37' W 002°08'1015.9
2017-May-24 21:54N 49°28' W 002°13'616.6
2017-May-24 21:30N 49°22' W 002°17'816.9
2017-May-24 21:00N 49°14' W 002°21'816.9
2017-May-24 20:31N 49°10' W 002°10'2 0.9
2017-May-24 18:07N 49°11' W 002°07'0 1.8
2017-May-24 18:00N 49°10' W 002°07'714.2
2017-May-24 17:30N 49°10' W 002°18'815.8
2017-May-24 16:59N 49°18' W 002°24'1016.5
2017-May-24 16:22N 49°27' W 002°30'1 0.4
2017-May-24 14:39N 49°26' W 002°30'312.1
2017-May-24 14:23N 49°27' W 002°25'1213.4
2017-May-24 13:30N 49°34' W 002°10'914.6
2017-May-24 12:54N 49°41' W 002°04'719.0
2017-May-24 12:31N 49°48' W 001°59'1019.9
2017-May-24 12:01N 49°57' W 001°52'1019.7
2017-May-24 11:30N 50°05' W 001°44'2918.8
2017-May-24 09:57N 50°29' W 001°16'818.1
2017-May-24 09:30N 50°35' W 001°09'816.6
2017-May-24 09:00N 50°43' W 001°03'612.6
2017-May-24 08:31N 50°48' W 001°07'1 1.6
2017-May-24 08:00N 50°49' W 001°06'0 0.0
2017-May-24 07:31N 50°49' W 001°06'0 0.0
2017-May-24 07:00N 50°49' W 001°06'0 0.0
2017-May-24 06:30N 50°49' W 001°06'0 0.0
2017-May-24 06:00N 50°49' W 001°06'1 2.8
2017-May-24 05:31N 50°47' W 001°07'611.8
2017-May-24 05:01N 50°43' W 001°01'815.6
2017-May-24 04:30N 50°36' W 001°07'4816.1
2017-May-24 01:31N 49°58' W 001°54'415.6
2017-May-24 01:14N 49°54' W 001°56'415.7
2017-May-24 00:58N 49°50' W 001°59'1213.7
2017-May-24 00:04N 49°38' W 002°05'1614.9
2017-May-23 22:58N 49°27' W 002°24'69 5.3
2017-May-23 10:03N 50°24' W 001°22'617.8
2017-May-23 09:43N 50°29' W 001°17'418.1
2017-May-23 09:30N 50°32' W 001°14'918.5
2017-May-23 09:00N 50°39' W 001°05'714.5
2017-May-23 08:31N 50°46' W 001°06'2 4.6
2017-May-23 08:01N 50°49' W 001°06'0 0.0
2017-May-23 07:30N 50°49' W 001°06'0 0.0
2017-May-23 07:00N 50°49' W 001°06'0 0.0
2017-May-23 06:31N 50°49' W 001°06'0 0.0
2017-May-23 06:00N 50°49' W 001°06'0 0.0
2017-May-23 05:30N 50°49' W 001°06'2 3.7
2017-May-23 05:01N 50°47' W 001°06'713.9
2017-May-23 04:31N 50°40' W 001°04'916.8
2017-May-23 04:00N 50°33' W 001°11'2415.9
2017-May-23 02:28N 50°12' W 001°32'815.2
2017-May-23 01:58N 50°07' W 001°40'715.1
2017-May-23 01:30N 50°01' W 001°45'915.9
2017-May-23 00:58N 49°54' W 001°52'715.5
2017-May-23 00:31N 49°48' W 001°59'714.0
2017-May-23 00:00N 49°41' W 002°04'714.3
2017-May-22 23:31N 49°35' W 002°08'1015.5
2017-May-22 22:50N 49°29' W 002°21'514.5
2017-May-22 22:29N 49°26' W 002°28'3 4.6
2017-May-22 21:47N 49°27' W 002°32'0 0.0
2017-May-22 20:18N 49°27' W 002°32'3 9.5
2017-May-22 20:00N 49°25' W 002°29'1317.1
2017-May-22 19:14N 49°13' W 002°20'9 3.1
2017-May-22 16:19N 49°11' W 002°07'0 0.0
2017-May-22 15:55N 49°11' W 002°07'410.6
2017-May-22 15:30N 49°10' W 002°14'714.6
2017-May-22 15:00N 49°16' W 002°20'4013.0
2017-May-22 11:56N 49°51' W 001°53'1419.1
2017-May-22 11:11N 50°03' W 001°39'918.6
2017-May-22 10:42N 50°11' W 001°33'618.2
2017-May-22 10:22N 50°16' W 001°29'718.8
2017-May-22 10:00N 50°22' W 001°23'918.7
2017-May-22 09:30N 50°30' W 001°15'1019.1
2017-May-22 09:00N 50°37' W 001°06'714.6
2017-May-22 08:31N 50°45' W 001°05'4 8.0
2017-May-22 08:00N 50°49' W 001°06'0 0.2
2017-May-22 07:30N 50°49' W 001°06'0 0.0
2017-May-22 07:00N 50°49' W 001°06'0 0.0
2017-May-22 06:30N 50°49' W 001°06'0 0.0
2017-May-22 06:00N 50°49' W 001°06'0 0.0
2017-May-22 05:31N 50°49' W 001°06'0 0.0
2017-May-22 05:00N 50°49' W 001°06'0 0.0
2017-May-22 04:31N 50°49' W 001°06'0 0.0
2017-May-22 04:00N 50°49' W 001°06'0 0.0
2017-May-22 03:31N 50°49' W 001°06'0 0.0
2017-May-22 03:00N 50°49' W 001°06'0 0.0
2017-May-22 02:30N 50°49' W 001°06'0 0.0
2017-May-22 02:00N 50°49' W 001°06'0 0.0
2017-May-22 01:30N 50°49' W 001°06'0 0.0
2017-May-22 01:00N 50°49' W 001°06'0 0.0
2017-May-22 00:30N 50°49' W 001°06'0 0.0
2017-May-22 00:00N 50°49' W 001°06'0 0.0
2017-May-21 23:30N 50°49' W 001°06'0 0.0
2017-May-21 23:01N 50°49' W 001°06'0 0.0
2017-May-21 22:30N 50°49' W 001°06'0 0.0
2017-May-21 22:00N 50°49' W 001°06'0 0.0
2017-May-21 21:30N 50°49' W 001°06'0 0.0
2017-May-21 21:00N 50°49' W 001°06'0 0.0
2017-May-21 20:30N 50°49' W 001°06'0 0.0
2017-May-21 20:00N 50°49' W 001°06'0 0.0
2017-May-21 19:30N 50°49' W 001°06'0 0.0
2017-May-21 19:00N 50°49' W 001°06'0 0.0
2017-May-21 18:30N 50°49' W 001°06'0 0.0
2017-May-21 18:00N 50°49' W 001°06'0 0.0
2017-May-21 17:30N 50°49' W 001°06'0 0.0
2017-May-21 17:00N 50°49' W 001°06'0 0.0
2017-May-21 16:30N 50°49' W 001°06'0 0.0
2017-May-21 16:00N 50°49' W 001°06'0 0.0
2017-May-21 15:30N 50°49' W 001°06'0 0.0
2017-May-21 15:00N 50°49' W 001°06'0 0.0
2017-May-21 14:30N 50°49' W 001°06'0 0.0
2017-May-21 13:30N 50°49' W 001°06'0 0.0
2017-May-21 13:00N 50°49' W 001°06'0 0.0
2017-May-21 12:31N 50°49' W 001°06'0 0.0
2017-May-21 12:01N 50°49' W 001°06'0 0.0
2017-May-21 11:31N 50°49' W 001°06'0 0.0
2017-May-21 11:00N 50°49' W 001°06'0 0.0
2017-May-21 10:30N 50°49' W 001°06'0 0.0
2017-May-21 10:00N 50°49' W 001°06'0 0.0
2017-May-21 09:30N 50°49' W 001°06'0 0.0
2017-May-21 09:00N 50°49' W 001°06'0 0.0
2017-May-21 08:30N 50°49' W 001°06'0 0.0
2017-May-21 08:00N 50°49' W 001°06'0 0.0
2017-May-21 07:31N 50°49' W 001°06'0 0.0
2017-May-21 07:00N 50°49' W 001°06'0 0.0
2017-May-21 06:30N 50°49' W 001°06'0 0.0
2017-May-21 06:00N 50°49' W 001°06'0 0.0
2017-May-21 05:31N 50°49' W 001°06'1 2.2
2017-May-21 05:00N 50°48' W 001°07'714.3
2017-May-21 04:31N 50°41' W 001°03'815.1
2017-May-21 04:00N 50°35' W 001°09'913.5
2017-May-21 03:19N 50°27' W 001°18'7 0.4
2017-May-20 10:02N 50°22' W 001°25'117.5
2017-May-20 10:00N 50°23' W 001°25'917.6
2017-May-20 09:30N 50°29' W 001°16'918.1
2017-May-20 09:01N 50°37' W 001°08'815.4
2017-May-20 08:31N 50°44' W 001°04'5 9.6
2017-May-20 08:01N 50°49' W 001°06'0 0.4
2017-May-20 07:30N 50°49' W 001°06'0 0.0
2017-May-20 07:00N 50°49' W 001°06'0 0.0
2017-May-20 06:30N 50°49' W 001°06'0 0.0
2017-May-20 06:00N 50°49' W 001°06'0 0.0
2017-May-20 05:30N 50°49' W 001°06'1 2.7
2017-May-20 05:00N 50°48' W 001°07'713.7
2017-May-20 04:31N 50°41' W 001°02'816.3
2017-May-20 04:01N 50°35' W 001°10'14 0.8
2017-May-19 10:57N 50°23' W 001°23'817.0
2017-May-19 10:30N 50°29' W 001°16'817.2
2017-May-19 10:00N 50°36' W 001°08'815.9
2017-May-19 09:31N 50°43' W 001°03'612.2
2017-May-19 09:00N 50°49' W 001°07'1 1.2
2017-May-19 08:30N 50°49' W 001°06'0 0.0
2017-May-19 08:00N 50°49' W 001°06'0 0.0
2017-May-19 07:30N 50°49' W 001°06'0 0.0
2017-May-19 07:00N 50°49' W 001°06'0 0.0
2017-May-19 06:30N 50°49' W 001°06'0 0.0
2017-May-19 06:00N 50°49' W 001°06'0 0.0
2017-May-19 05:30N 50°49' W 001°06'1 2.7
2017-May-19 05:00N 50°48' W 001°07'713.8
2017-May-19 04:31N 50°41' W 001°03'816.0
2017-May-19 04:00N 50°35' W 001°10'10 0.5
2017-May-18 09:51N 50°26' W 001°18'617.2
2017-May-18 09:30N 50°31' W 001°13'917.4
2017-May-18 09:00N 50°38' W 001°05'714.4
2017-May-18 08:30N 50°46' W 001°05'3 6.2
2017-May-18 08:01N 50°49' W 001°06'0 0.0
2017-May-18 07:30N 50°49' W 001°06'0 0.0
2017-May-18 07:00N 50°49' W 001°06'  

Dump ship's entire track history